createdAt,value
2024-02-23T00:00:19.021Z,16.40
2024-02-23T00:01:21.588Z,16.58
2024-02-23T00:02:24.259Z,10.50
2024-02-23T00:03:27.269Z,14.23
2024-02-23T00:04:29.877Z,14.02
2024-02-23T00:05:33.112Z,16.75
2024-02-23T00:06:35.821Z,20.98
2024-02-23T00:07:38.376Z,20.38
2024-02-23T00:08:42.641Z,21.23
2024-02-23T00:09:45.210Z,18.25
2024-02-23T00:10:47.954Z,20.05
2024-02-23T00:11:50.924Z,16.25
2024-02-23T00:12:53.617Z,17.20
2024-02-23T00:13:56.214Z,19.38
2024-02-23T00:14:59.033Z,17.10
2024-02-23T00:16:01.684Z,15.00
2024-02-23T00:17:04.447Z,15.10
2024-02-23T00:18:07.934Z,17.50
2024-02-23T00:19:11.073Z,12.90
2024-02-23T00:20:13.838Z,10.73
2024-02-23T00:21:16.440Z,12.82
2024-02-23T00:22:18.968Z,14.80
2024-02-23T00:23:21.657Z,8.82
2024-02-23T00:24:24.353Z,8.27
2024-02-23T00:25:26.899Z,11.30
2024-02-23T00:26:30.740Z,8.00
2024-02-23T00:27:33.352Z,15.13
2024-02-23T00:28:36.131Z,10.95
2024-02-23T00:29:38.714Z,13.82
2024-02-23T00:30:41.242Z,15.85
2024-02-23T00:31:46.509Z,11.40
2024-02-23T00:32:49.258Z,9.43
2024-02-23T00:33:51.834Z,12.38
2024-02-23T00:34:54.440Z,12.95
2024-02-23T00:35:57.050Z,14.85
2024-02-23T00:36:59.633Z,11.55
2024-02-23T00:38:02.223Z,11.27
2024-02-23T00:39:04.772Z,10.80
2024-02-23T00:40:08.291Z,14.15
2024-02-23T00:41:10.951Z,13.48
2024-02-23T00:42:13.506Z,12.25
2024-02-23T00:43:16.123Z,20.05
2024-02-23T00:44:18.819Z,19.98
2024-02-23T00:45:21.451Z,16.63
2024-02-23T00:46:24.014Z,12.90
2024-02-23T00:47:28.502Z,19.98
2024-02-23T00:48:31.392Z,23.42
2024-02-23T00:49:34.006Z,19.98
2024-02-23T00:50:36.667Z,22.90
2024-02-23T00:51:39.230Z,12.90
2024-02-23T00:52:42.345Z,12.73
2024-02-23T00:53:44.912Z,16.17
2024-02-23T00:54:47.456Z,16.42
2024-02-23T00:55:50.149Z,15.15
2024-02-23T00:56:57.261Z,25.55
2024-02-23T00:58:00.452Z,20.70
2024-02-23T00:59:03.171Z,21.13
2024-02-23T01:00:07.179Z,19.33
2024-02-23T01:01:09.774Z,19.50
2024-02-23T01:02:12.374Z,20.85
2024-02-23T01:03:15.059Z,22.33
2024-02-23T01:04:17.584Z,19.77
2024-02-23T01:05:20.315Z,23.83
2024-02-23T01:06:23.028Z,15.70
2024-02-23T01:07:27.352Z,18.70
2024-02-23T01:08:31.205Z,27.48
2024-02-23T01:09:33.776Z,25.42
2024-02-23T01:10:36.446Z,15.57
2024-02-23T01:11:39.234Z,22.55
2024-02-23T01:12:41.899Z,24.05
2024-02-23T01:13:44.467Z,18.52
2024-02-23T01:14:49.470Z,11.20
2024-02-23T01:15:55.119Z,7.70
2024-02-23T01:18:00.059Z,18.48
2024-02-23T01:19:04.214Z,14.82
2024-02-23T01:20:07.709Z,17.50
2024-02-23T01:21:10.212Z,13.75
2024-02-23T01:22:12.945Z,11.85
2024-02-23T01:23:15.633Z,14.50
2024-02-23T01:24:18.351Z,19.23
2024-02-23T01:25:21.033Z,12.57
2024-02-23T01:26:23.660Z,11.95
2024-02-23T01:27:26.291Z,11.20
2024-02-23T01:28:28.844Z,8.25
2024-02-23T01:29:31.449Z,7.82
2024-02-23T01:30:34.081Z,9.88
2024-02-23T01:31:36.679Z,10.23
2024-02-23T01:32:40.344Z,8.57
2024-02-23T01:33:43.277Z,9.73
2024-02-23T01:34:45.938Z,11.23
2024-02-23T01:35:48.725Z,12.18
2024-02-23T01:36:51.325Z,15.32
2024-02-23T01:37:54.935Z,15.85
2024-02-23T01:38:57.534Z,15.95
2024-02-23T01:40:01.552Z,24.52
2024-02-23T01:41:05.896Z,10.68
2024-02-23T01:42:09.809Z,12.25
2024-02-23T01:43:12.416Z,13.55
2024-02-23T01:44:16.632Z,10.98
2024-02-23T01:45:19.386Z,9.35
2024-02-23T01:46:22.818Z,6.45
2024-02-23T01:47:26.540Z,7.97
2024-02-23T01:48:29.439Z,8.80
2024-02-23T01:49:35.010Z,10.32
2024-02-23T01:50:38.625Z,13.85
2024-02-23T01:51:41.488Z,6.72
2024-02-23T01:52:44.434Z,8.75
2024-02-23T01:53:47.165Z,8.43
2024-02-23T01:54:49.941Z,8.25
2024-02-23T01:55:54.720Z,8.27
2024-02-23T01:57:03.418Z,15.23
2024-02-23T01:58:09.216Z,14.27
2024-02-23T01:59:13.288Z,13.85
2024-02-23T02:00:19.516Z,12.98
2024-02-23T02:01:28.691Z,9.88
2024-02-23T02:02:32.017Z,12.38
2024-02-23T02:03:34.837Z,11.85
2024-02-23T02:04:37.432Z,11.27
2024-02-23T02:05:40.319Z,13.23
2024-02-23T02:06:43.399Z,9.63
2024-02-23T02:07:48.382Z,11.32
2024-02-23T02:08:51.181Z,13.05
2024-02-23T02:09:53.838Z,9.10
2024-02-23T02:10:56.537Z,10.25
2024-02-23T02:11:59.203Z,8.93
2024-02-23T02:13:06.611Z,10.63
2024-02-23T02:14:09.273Z,10.57
2024-02-23T02:15:11.879Z,13.52
2024-02-23T02:16:14.480Z,15.82
2024-02-23T02:17:17.125Z,9.63
2024-02-23T02:18:20.212Z,6.25
2024-02-23T02:19:22.867Z,8.15
2024-02-23T02:20:30.037Z,8.07
2024-02-23T02:21:34.233Z,9.55
2024-02-23T02:22:36.890Z,7.30
2024-02-23T02:23:39.741Z,8.43
2024-02-23T02:24:44.821Z,9.68
2024-02-23T02:26:02.353Z,7.82
2024-02-23T02:27:07.767Z,8.80
2024-02-23T02:28:10.312Z,11.20
2024-02-23T02:29:12.951Z,10.80
2024-02-23T02:30:15.969Z,12.43
2024-02-23T02:31:18.549Z,10.05
2024-02-23T02:32:21.306Z,8.63
2024-02-23T02:33:24.234Z,7.43
2024-02-23T02:34:26.918Z,8.23
2024-02-23T02:35:29.743Z,9.82
2024-02-23T02:36:32.308Z,9.43
2024-02-23T02:37:35.623Z,9.95
2024-02-23T02:38:38.855Z,7.85
2024-02-23T02:39:41.426Z,7.47
2024-02-23T02:40:44.313Z,7.57
2024-02-23T02:41:48.864Z,8.00
2024-02-23T02:42:51.483Z,8.73
2024-02-23T02:43:54.050Z,10.32
2024-02-23T02:44:56.725Z,6.45
2024-02-23T02:46:00.269Z,7.55
2024-02-23T02:47:02.909Z,10.65
2024-02-23T02:48:06.026Z,8.40
2024-02-23T02:49:08.849Z,10.65
2024-02-23T02:50:11.484Z,9.13
2024-02-23T02:51:14.043Z,9.35
2024-02-23T02:52:16.581Z,10.50
2024-02-23T02:53:20.339Z,13.20
2024-02-23T02:54:23.014Z,15.52
2024-02-23T02:55:25.514Z,14.20
2024-02-23T02:56:28.173Z,14.73
2024-02-23T02:57:31.124Z,11.15
2024-02-23T02:58:33.678Z,8.35
2024-02-23T02:59:37.542Z,7.78
2024-02-23T03:00:40.779Z,6.38
2024-02-23T03:01:43.578Z,8.68
2024-02-23T03:02:46.118Z,8.30
2024-02-23T03:03:48.913Z,7.75
2024-02-23T03:04:52.463Z,9.88
2024-02-23T03:05:55.105Z,9.82
2024-02-23T03:06:57.705Z,9.50
2024-02-23T03:08:00.326Z,8.63
2024-02-23T03:09:03.958Z,8.32
2024-02-23T03:10:07.441Z,7.72
2024-02-23T03:11:10.160Z,7.45
2024-02-23T03:12:12.820Z,9.60
2024-02-23T03:13:15.439Z,8.07
2024-02-23T03:14:19.591Z,7.70
2024-02-23T03:15:22.258Z,8.95
2024-02-23T03:16:27.078Z,10.48
2024-02-23T03:17:30.503Z,11.13
2024-02-23T03:18:33.132Z,10.05
2024-02-23T03:19:35.934Z,8.63
2024-02-23T03:20:38.608Z,6.88
2024-02-23T03:21:41.165Z,6.32
2024-02-23T03:22:43.772Z,8.45
2024-02-23T03:23:46.378Z,9.38
2024-02-23T03:24:48.944Z,8.57
2024-02-23T03:25:51.521Z,8.90
2024-02-23T03:26:54.405Z,10.38
2024-02-23T03:27:56.999Z,11.25
2024-02-23T03:28:59.589Z,9.60
2024-02-23T03:30:02.213Z,9.90
2024-02-23T03:31:04.808Z,12.05
2024-02-23T03:32:08.494Z,7.75
2024-02-23T03:33:11.311Z,8.75
2024-02-23T03:34:14.377Z,9.13
2024-02-23T03:35:17.029Z,9.38
2024-02-23T03:36:19.640Z,11.70
2024-02-23T03:37:22.213Z,11.50
2024-02-23T03:38:24.786Z,10.70
2024-02-23T03:39:27.493Z,9.40
2024-02-23T03:40:30.140Z,10.15
2024-02-23T03:41:32.784Z,9.07
2024-02-23T03:42:35.940Z,7.47
2024-02-23T03:43:39.518Z,7.57
2024-02-23T03:44:43.902Z,7.65
2024-02-23T03:45:46.492Z,8.45
2024-02-23T03:46:49.035Z,10.32
2024-02-23T03:47:51.730Z,10.35
2024-02-23T03:48:54.367Z,10.90
2024-02-23T03:49:57.039Z,10.27
2024-02-23T03:50:59.708Z,12.77
2024-02-23T03:52:02.842Z,14.40
2024-02-23T03:53:05.580Z,14.85
2024-02-23T03:54:08.303Z,12.48
2024-02-23T03:55:11.045Z,13.10
2024-02-23T03:56:14.112Z,13.60
2024-02-23T03:57:16.653Z,10.02
2024-02-23T03:58:19.215Z,12.10
2024-02-23T03:59:21.890Z,10.50
2024-02-23T04:00:24.484Z,14.43
2024-02-23T04:01:26.994Z,13.15
2024-02-23T04:02:30.359Z,12.80
2024-02-23T04:03:33.000Z,17.30
2024-02-23T04:04:35.789Z,17.30
2024-02-23T04:05:38.527Z,18.13
2024-02-23T04:06:41.191Z,13.63
2024-02-23T04:07:43.949Z,18.02
2024-02-23T04:08:47.652Z,23.00
2024-02-23T04:09:53.756Z,18.63
2024-02-23T04:10:56.872Z,19.50
2024-02-23T04:11:59.785Z,20.75
2024-02-23T04:13:02.876Z,18.95
2024-02-23T04:14:06.494Z,20.58
2024-02-23T04:15:09.767Z,23.33
2024-02-23T04:16:12.314Z,22.27
2024-02-23T04:17:15.209Z,23.42
2024-02-23T04:18:17.784Z,32.00
2024-02-23T04:19:20.337Z,22.13
2024-02-23T04:20:23.046Z,23.15
2024-02-23T04:21:25.587Z,33.00
2024-02-23T04:22:28.118Z,40.92
2024-02-23T04:23:31.699Z,23.33
2024-02-23T04:24:34.297Z,21.23
2024-02-23T04:25:36.925Z,19.65
2024-02-23T04:26:39.568Z,16.58
2024-02-23T04:27:42.331Z,11.43
2024-02-23T04:28:44.853Z,27.45
2024-02-23T04:29:47.474Z,30.58
2024-02-23T04:30:50.469Z,13.48
2024-02-23T04:31:53.079Z,12.15
2024-02-23T04:32:55.710Z,10.85
2024-02-23T04:33:58.307Z,11.63
2024-02-23T04:35:00.891Z,12.82
2024-02-23T04:36:04.906Z,11.65
2024-02-23T04:37:07.541Z,17.50
2024-02-23T04:38:10.152Z,40.35
2024-02-23T04:39:12.704Z,18.95
2024-02-23T04:40:15.489Z,12.57
2024-02-23T04:41:24.713Z,15.93
2024-02-23T04:42:27.920Z,13.40
2024-02-23T04:43:30.492Z,14.57
2024-02-23T04:44:33.183Z,16.20
2024-02-23T04:45:35.870Z,16.35
2024-02-23T04:46:38.471Z,14.00
2024-02-23T04:47:41.833Z,15.60
2024-02-23T04:48:44.918Z,18.65
2024-02-23T04:49:47.520Z,17.58
2024-02-23T04:50:50.072Z,16.95
2024-02-23T04:51:52.616Z,16.13
2024-02-23T04:52:55.237Z,16.77
2024-02-23T04:53:57.915Z,17.88
2024-02-23T04:55:00.583Z,21.58
2024-02-23T04:56:03.414Z,14.20
2024-02-23T04:57:06.093Z,16.85
2024-02-23T04:58:08.690Z,11.93
2024-02-23T04:59:11.396Z,15.57
2024-02-23T05:00:14.374Z,12.32
2024-02-23T05:01:16.921Z,13.25
2024-02-23T05:02:19.887Z,15.40
2024-02-23T05:03:22.711Z,16.42
2024-02-23T05:04:25.338Z,15.63
2024-02-23T05:05:27.942Z,12.88
2024-02-23T05:06:31.234Z,14.95
2024-02-23T05:07:34.394Z,17.63
2024-02-23T05:08:37.054Z,14.52
2024-02-23T05:09:41.709Z,16.38
2024-02-23T05:10:44.330Z,16.02
2024-02-23T05:11:48.516Z,15.68
2024-02-23T05:12:51.705Z,13.82
2024-02-23T05:13:54.778Z,14.45
2024-02-23T05:14:57.430Z,24.58
2024-02-23T05:16:00.124Z,37.72
2024-02-23T05:17:02.748Z,27.33
2024-02-23T05:18:06.449Z,33.65
2024-02-23T05:19:09.115Z,48.20
2024-02-23T05:20:12.680Z,28.02
2024-02-23T05:21:18.466Z,28.05
2024-02-23T05:22:21.059Z,59.88
2024-02-23T05:23:23.666Z,62.30
2024-02-23T05:24:26.882Z,51.03
2024-02-23T05:25:29.482Z,28.63
2024-02-23T05:26:32.079Z,21.63
2024-02-23T05:27:34.670Z,18.15
2024-02-23T05:28:37.200Z,14.95
2024-02-23T05:29:39.819Z,17.30
2024-02-23T05:30:42.452Z,35.28
2024-02-23T05:31:51.424Z,42.22
2024-02-23T05:32:54.396Z,30.02
2024-02-23T05:33:57.031Z,28.58
2024-02-23T05:34:59.715Z,32.25
2024-02-23T05:36:02.865Z,22.40
2024-02-23T05:37:05.477Z,37.80
2024-02-23T05:38:08.108Z,22.77
2024-02-23T05:39:10.898Z,27.92
2024-02-23T05:40:13.644Z,62.28
2024-02-23T05:41:17.050Z,77.95
2024-02-23T05:42:19.730Z,65.38
2024-02-23T05:43:22.325Z,42.40
2024-02-23T05:44:24.971Z,44.40
2024-02-23T05:45:27.519Z,26.15
2024-02-23T05:46:30.028Z,16.75
2024-02-23T05:47:32.922Z,13.80
2024-02-23T05:48:35.738Z,18.33
2024-02-23T05:49:38.362Z,21.85
2024-02-23T05:50:41.019Z,20.95
2024-02-23T05:51:43.638Z,28.48
2024-02-23T05:52:46.240Z,24.98
2024-02-23T05:53:48.815Z,19.02
2024-02-23T05:54:52.987Z,19.58
2024-02-23T05:55:55.582Z,17.30
2024-02-23T05:56:58.105Z,18.17
2024-02-23T05:58:00.773Z,15.95
2024-02-23T05:59:03.590Z,19.85
2024-02-23T06:00:08.578Z,19.25
2024-02-23T06:01:17.015Z,18.00
2024-02-23T06:02:19.784Z,14.88
2024-02-23T06:03:22.321Z,14.18
2024-02-23T06:04:25.849Z,14.13
2024-02-23T06:05:29.455Z,13.65
2024-02-23T06:06:32.766Z,15.80
2024-02-23T06:07:36.134Z,17.92
2024-02-23T06:08:39.098Z,18.58
2024-02-23T06:09:41.733Z,19.65
2024-02-23T06:10:44.559Z,19.08
2024-02-23T06:11:47.999Z,14.40
2024-02-23T06:12:52.670Z,19.90
2024-02-23T06:13:56.918Z,18.70
2024-02-23T06:14:59.930Z,15.75
2024-02-23T06:16:02.470Z,17.15
2024-02-23T06:17:05.278Z,13.93
2024-02-23T06:18:08.033Z,15.63
2024-02-23T06:19:10.705Z,15.38
2024-02-23T06:20:13.754Z,17.83
2024-02-23T06:21:18.668Z,17.60
2024-02-23T06:22:23.347Z,25.45
2024-02-23T06:23:26.050Z,21.27
2024-02-23T06:24:28.708Z,14.52
2024-02-23T06:25:32.504Z,12.32
2024-02-23T06:26:35.839Z,18.98
2024-02-23T06:27:38.574Z,19.45
2024-02-23T06:28:44.408Z,18.15
2024-02-23T06:29:48.259Z,14.30
2024-02-23T06:30:50.906Z,12.13
2024-02-23T06:31:53.496Z,17.95
2024-02-23T06:32:56.163Z,18.67
2024-02-23T06:33:58.929Z,13.70
2024-02-23T06:35:01.881Z,18.30
2024-02-23T06:36:06.236Z,31.70
2024-02-23T06:37:08.869Z,17.38
2024-02-23T06:38:11.505Z,12.32
2024-02-23T06:39:14.228Z,13.02
2024-02-23T06:40:16.955Z,12.18
2024-02-23T06:41:19.761Z,11.30
2024-02-23T06:42:22.621Z,10.27
2024-02-23T06:43:25.263Z,12.02
2024-02-23T06:44:27.854Z,9.13
2024-02-23T06:45:30.398Z,8.50
2024-02-23T06:46:33.000Z,9.43
2024-02-23T06:47:35.736Z,12.65
2024-02-23T06:48:38.883Z,18.10
2024-02-23T06:49:44.971Z,15.18
2024-02-23T06:50:47.930Z,9.18
2024-02-23T06:51:50.594Z,13.82
2024-02-23T06:52:53.150Z,11.55
2024-02-23T06:53:57.774Z,11.07
2024-02-23T06:55:00.657Z,21.60
2024-02-23T06:56:03.495Z,8.27
2024-02-23T06:57:06.071Z,11.18
2024-02-23T06:58:08.795Z,13.18
2024-02-23T06:59:11.357Z,19.58
2024-02-23T07:00:14.949Z,21.67
2024-02-23T07:01:17.589Z,14.98
2024-02-23T07:02:20.580Z,15.13
2024-02-23T07:03:23.381Z,12.55
2024-02-23T07:04:26.724Z,13.20
2024-02-23T07:05:29.417Z,13.73
2024-02-23T07:06:33.227Z,15.50
2024-02-23T07:07:36.411Z,18.52
2024-02-23T07:08:39.121Z,16.65
2024-02-23T07:09:41.765Z,16.40
2024-02-23T07:10:44.507Z,11.43
2024-02-23T07:11:47.229Z,11.65
2024-02-23T07:12:49.904Z,14.63
2024-02-23T07:13:53.414Z,14.75
2024-02-23T07:14:59.236Z,14.32
2024-02-23T07:16:02.290Z,23.63
2024-02-23T07:17:05.150Z,15.02
2024-02-23T07:18:09.864Z,16.77
2024-02-23T07:19:13.999Z,15.10
2024-02-23T07:20:17.254Z,16.30
2024-02-23T07:21:20.151Z,19.25
2024-02-23T07:22:22.862Z,20.40
2024-02-23T07:23:25.476Z,20.92
2024-02-23T07:24:28.179Z,19.83
2024-02-23T07:25:30.706Z,16.40
2024-02-23T07:26:33.418Z,20.65
2024-02-23T07:27:36.422Z,21.90
2024-02-23T07:28:38.978Z,25.50
2024-02-23T07:29:41.697Z,26.20
2024-02-23T07:30:44.432Z,31.55
2024-02-23T07:31:46.985Z,28.67
2024-02-23T07:32:52.434Z,34.55
2024-02-23T07:33:56.401Z,29.00
2024-02-23T07:34:59.126Z,28.30
2024-02-23T07:36:01.682Z,21.90
2024-02-23T07:37:05.010Z,21.30
2024-02-23T07:38:07.583Z,20.00
2024-02-23T07:39:10.354Z,22.35
2024-02-23T07:40:13.973Z,25.90
2024-02-23T07:41:19.005Z,24.73
2024-02-23T07:42:21.818Z,16.27
2024-02-23T07:43:25.679Z,20.38
2024-02-23T07:44:28.402Z,20.75
2024-02-23T07:45:31.126Z,15.00
2024-02-23T07:46:33.830Z,12.55
2024-02-23T07:47:36.916Z,11.80
2024-02-23T07:48:39.657Z,11.10
2024-02-23T07:49:42.335Z,16.73
2024-02-23T07:50:45.062Z,15.43
2024-02-23T07:51:47.621Z,14.02
2024-02-23T07:52:50.347Z,14.52
2024-02-23T07:53:52.930Z,14.65
2024-02-23T07:54:55.809Z,13.30
2024-02-23T07:56:00.642Z,15.65
2024-02-23T07:57:05.679Z,14.63
2024-02-23T07:58:08.245Z,14.82
2024-02-23T07:59:11.333Z,15.57
2024-02-23T08:00:14.192Z,12.25
2024-02-23T08:01:16.979Z,13.93
2024-02-23T08:02:19.625Z,14.40
2024-02-23T08:03:22.304Z,11.45
2024-02-23T08:04:24.994Z,12.82
2024-02-23T08:05:27.645Z,11.05
2024-02-23T08:06:30.777Z,13.90
2024-02-23T08:07:33.510Z,11.05
2024-02-23T08:08:37.262Z,18.13
2024-02-23T08:10:14.141Z,15.93
2024-02-23T08:11:16.911Z,19.38
2024-02-23T08:12:19.582Z,16.38
2024-02-23T08:13:22.275Z,14.25
2024-02-23T08:14:24.816Z,13.73
2024-02-23T08:15:27.401Z,9.77
2024-02-23T08:16:30.267Z,12.63
2024-02-23T08:17:33.136Z,14.30
2024-02-23T08:18:35.925Z,13.10
2024-02-23T08:19:38.590Z,17.20
2024-02-23T08:20:42.383Z,16.25
2024-02-23T08:21:45.187Z,26.05
2024-02-23T08:22:48.586Z,33.65
2024-02-23T08:23:58.088Z,27.25
2024-02-23T08:25:27.174Z,19.67
2024-02-23T08:26:56.104Z,14.98
2024-02-23T08:28:18.155Z,17.27
2024-02-23T08:29:47.131Z,16.58
2024-02-23T08:31:02.872Z,15.70
2024-02-23T08:32:19.892Z,15.45
2024-02-23T08:33:35.248Z,16.58
2024-02-23T08:34:51.266Z,16.10
2024-02-23T08:36:07.217Z,13.35
2024-02-23T08:37:23.159Z,16.02
2024-02-23T08:38:47.178Z,18.08
2024-02-23T08:39:55.794Z,10.93
2024-02-23T08:41:18.211Z,10.25
2024-02-23T08:42:28.108Z,9.48
2024-02-23T08:43:51.231Z,16.58
2024-02-23T08:44:55.694Z,14.15
2024-02-23T08:46:02.164Z,14.70
2024-02-23T08:47:08.138Z,17.38
2024-02-23T08:48:11.058Z,15.07
2024-02-23T08:49:13.812Z,17.70
2024-02-23T08:50:16.777Z,17.88
2024-02-23T08:51:19.532Z,16.67
2024-02-23T08:52:22.241Z,19.73
2024-02-23T08:53:24.902Z,19.67
2024-02-23T08:54:27.705Z,15.18
2024-02-23T08:55:30.306Z,20.05
2024-02-23T08:56:33.596Z,17.13
2024-02-23T08:57:36.549Z,17.23
2024-02-23T08:58:39.706Z,15.65
2024-02-23T08:59:42.243Z,15.90
2024-02-23T09:00:44.912Z,20.05
2024-02-23T09:01:48.004Z,22.35
2024-02-23T09:02:51.256Z,17.67
2024-02-23T09:03:55.814Z,11.82
2024-02-23T09:04:58.863Z,11.77
2024-02-23T09:06:01.862Z,18.92
2024-02-23T09:07:05.036Z,15.25
2024-02-23T09:08:08.053Z,18.92
2024-02-23T09:09:10.798Z,10.82
2024-02-23T09:10:13.716Z,12.68
2024-02-23T09:11:16.620Z,19.52
2024-02-23T09:12:20.044Z,14.85
2024-02-23T09:13:22.749Z,14.05
2024-02-23T09:14:26.675Z,18.08
2024-02-23T09:15:29.398Z,16.20
2024-02-23T09:16:31.954Z,19.63
2024-02-23T09:17:34.827Z,18.60
2024-02-23T09:18:37.786Z,17.15
2024-02-23T09:19:40.622Z,22.08
2024-02-23T09:20:43.336Z,10.60
2024-02-23T09:21:46.730Z,18.95
2024-02-23T09:22:50.198Z,13.60
2024-02-23T09:23:52.871Z,21.52
2024-02-23T09:24:57.448Z,19.05
2024-02-23T09:26:01.207Z,19.23
2024-02-23T09:27:04.448Z,19.55
2024-02-23T09:28:07.345Z,15.63
2024-02-23T09:29:10.081Z,6.80
2024-02-23T09:30:15.289Z,7.30
2024-02-23T09:31:18.100Z,12.00
2024-02-23T09:32:20.805Z,18.15
2024-02-23T09:33:23.565Z,18.70
2024-02-23T09:34:26.591Z,17.70
2024-02-23T09:35:29.349Z,19.63
2024-02-23T09:36:32.017Z,14.13
2024-02-23T09:37:34.734Z,11.20
2024-02-23T09:38:37.371Z,13.55
2024-02-23T09:39:39.950Z,19.58
2024-02-23T09:40:42.507Z,13.90
2024-02-23T09:41:45.222Z,12.43
2024-02-23T09:42:58.379Z,8.25
2024-02-23T09:44:04.028Z,8.07
2024-02-23T09:45:10.114Z,12.13
2024-02-23T09:46:13.712Z,15.43
2024-02-23T09:47:16.516Z,11.80
2024-02-23T09:48:21.945Z,9.85
2024-02-23T09:49:24.668Z,14.48
2024-02-23T09:50:30.572Z,26.33
2024-02-23T09:51:35.311Z,23.92
2024-02-23T09:52:38.074Z,28.52
2024-02-23T09:53:40.885Z,25.55
2024-02-23T09:54:44.507Z,7.90
2024-02-23T09:55:49.399Z,8.50
2024-02-23T09:56:53.345Z,14.15
2024-02-23T09:58:01.109Z,10.85
2024-02-23T09:59:05.656Z,5.57
2024-02-23T10:00:10.458Z,8.05
2024-02-23T10:01:28.846Z,8.82
2024-02-23T10:02:32.852Z,7.63
2024-02-23T10:03:38.333Z,11.23
2024-02-23T10:04:44.545Z,14.65
2024-02-23T10:05:47.430Z,8.13
2024-02-23T10:06:50.124Z,11.25
2024-02-23T10:07:55.869Z,12.82
2024-02-23T10:08:58.639Z,15.73
2024-02-23T10:10:02.576Z,10.68
2024-02-23T10:11:06.575Z,19.45
2024-02-23T10:12:09.693Z,12.25
2024-02-23T10:13:12.560Z,7.05
2024-02-23T10:14:15.129Z,9.15
2024-02-23T10:15:17.776Z,7.72
2024-02-23T10:16:23.853Z,8.10
2024-02-23T10:17:27.132Z,10.82
2024-02-23T10:18:29.745Z,8.07
2024-02-23T10:19:32.768Z,6.38
2024-02-23T10:20:36.456Z,7.95
2024-02-23T10:21:39.337Z,5.07
2024-02-23T10:22:41.873Z,5.90
2024-02-23T10:23:48.530Z,8.85
2024-02-23T10:24:51.300Z,8.02
2024-02-23T10:25:53.924Z,9.40
2024-02-23T10:26:56.542Z,10.45
2024-02-23T10:28:01.064Z,16.30
2024-02-23T10:29:04.397Z,10.15
2024-02-23T10:30:08.019Z,11.75
2024-02-23T10:31:13.674Z,15.05
2024-02-23T10:32:17.087Z,12.93
2024-02-23T10:33:27.177Z,7.53
2024-02-23T10:34:32.475Z,6.43
2024-02-23T10:35:41.802Z,5.82
2024-02-23T10:36:46.540Z,9.18
2024-02-23T10:37:54.623Z,13.88
2024-02-23T10:39:04.262Z,6.32
2024-02-23T10:40:10.452Z,11.15
2024-02-23T10:41:15.342Z,13.05
2024-02-23T10:42:25.482Z,17.98
2024-02-23T10:43:56.974Z,10.48
2024-02-23T10:45:02.504Z,13.25
2024-02-23T10:46:09.083Z,14.73
2024-02-23T10:47:13.491Z,11.35
2024-02-23T10:48:17.418Z,14.38
2024-02-23T10:49:24.378Z,9.38
2024-02-23T10:50:27.788Z,12.93
2024-02-23T10:51:32.366Z,12.43
2024-02-23T10:52:36.266Z,13.02
2024-02-23T10:53:41.721Z,9.45
2024-02-23T10:54:47.688Z,14.15
2024-02-23T10:55:59.198Z,14.93
2024-02-23T10:57:03.432Z,14.57
2024-02-23T10:58:12.968Z,10.00
2024-02-23T10:59:19.403Z,13.20
2024-02-23T11:00:25.508Z,14.25
2024-02-23T11:01:29.441Z,24.02
2024-02-23T11:02:37.083Z,27.88
2024-02-23T11:03:44.301Z,22.27
2024-02-23T11:04:52.255Z,21.45
2024-02-23T11:05:55.807Z,10.88
2024-02-23T11:07:00.369Z,13.13
2024-02-23T11:08:08.446Z,16.05
2024-02-23T11:09:14.493Z,18.60
2024-02-23T11:10:18.007Z,25.67
2024-02-23T11:11:20.754Z,26.15
2024-02-23T11:12:25.818Z,22.15
2024-02-23T11:13:39.816Z,25.40
2024-02-23T11:14:45.792Z,26.15
2024-02-23T11:15:50.155Z,20.00
2024-02-23T11:16:53.184Z,19.33
2024-02-23T11:17:57.359Z,22.17
2024-02-23T11:19:12.616Z,15.98
2024-02-23T11:20:29.516Z,10.63
2024-02-23T11:21:40.243Z,8.18
2024-02-23T11:22:42.991Z,12.23
2024-02-23T11:23:52.416Z,16.40
2024-02-23T11:24:56.108Z,17.45
2024-02-23T11:26:04.849Z,14.43
2024-02-23T11:27:14.036Z,12.38
2024-02-23T11:28:25.972Z,21.42
2024-02-23T11:29:30.703Z,14.48
2024-02-23T11:30:34.128Z,18.60
2024-02-23T11:31:38.941Z,18.20
2024-02-23T11:32:44.886Z,15.80
2024-02-23T11:33:53.499Z,12.20
2024-02-23T11:34:58.115Z,12.52
2024-02-23T11:36:10.332Z,10.40
2024-02-23T11:37:14.357Z,13.43
2024-02-23T11:38:19.178Z,10.27
2024-02-23T11:39:22.899Z,10.60
2024-02-23T11:40:27.191Z,8.32
2024-02-23T11:41:30.781Z,10.18
2024-02-23T11:42:36.847Z,12.98
2024-02-23T11:43:40.922Z,16.50
2024-02-23T11:44:43.463Z,7.72
2024-02-23T11:45:48.608Z,8.20
2024-02-23T11:46:51.380Z,8.90
2024-02-23T11:47:54.082Z,6.10
2024-02-23T11:48:57.025Z,8.73
2024-02-23T11:49:59.910Z,6.28
2024-02-23T11:51:02.645Z,5.63
2024-02-23T11:52:05.660Z,12.85
2024-02-23T11:53:08.305Z,15.55
2024-02-23T11:54:11.070Z,13.02
2024-02-23T11:55:15.987Z,20.65
2024-02-23T11:56:21.130Z,28.17
2024-02-23T11:57:24.220Z,23.35
2024-02-23T11:58:27.275Z,17.67
2024-02-23T11:59:29.982Z,14.40
2024-02-23T12:00:33.271Z,21.15
2024-02-23T12:01:35.875Z,15.63
2024-02-23T12:02:38.493Z,23.92
2024-02-23T12:03:45.067Z,15.32
2024-02-23T12:04:47.741Z,15.82
2024-02-23T12:05:52.249Z,23.45
2024-02-23T12:06:54.977Z,23.33
2024-02-23T12:07:59.689Z,22.15
2024-02-23T12:09:03.047Z,14.00
2024-02-23T12:10:07.279Z,16.55
2024-02-23T12:11:11.092Z,31.98
2024-02-23T12:12:14.502Z,89.75
2024-02-23T12:13:17.197Z,70.65
2024-02-23T12:14:20.020Z,57.90
2024-02-23T12:15:22.783Z,27.25
2024-02-23T12:16:26.791Z,19.98
2024-02-23T12:17:30.479Z,19.88
2024-02-23T12:18:37.936Z,12.50
2024-02-23T12:19:43.918Z,18.88
2024-02-23T12:20:49.297Z,11.98
2024-02-23T12:21:51.974Z,13.05
2024-02-23T12:22:57.692Z,19.58
2024-02-23T12:24:00.496Z,21.63
2024-02-23T12:25:04.365Z,20.83
2024-02-23T12:26:08.406Z,18.98
2024-02-23T12:27:11.081Z,19.45
2024-02-23T12:28:19.541Z,22.23
2024-02-23T12:29:22.492Z,19.98
2024-02-23T12:30:25.264Z,21.90
2024-02-23T12:31:27.979Z,111.45
2024-02-23T12:32:30.691Z,17.55
2024-02-23T12:33:38.892Z,15.25
2024-02-23T12:34:45.213Z,16.27
2024-02-23T12:35:47.877Z,16.00
2024-02-23T12:36:51.161Z,23.20
2024-02-23T12:37:53.866Z,22.73
2024-02-23T12:38:56.792Z,24.17
2024-02-23T12:39:59.317Z,31.27
2024-02-23T12:41:04.076Z,20.10
2024-02-23T12:42:06.915Z,12.15
2024-02-23T12:43:09.480Z,14.88
2024-02-23T12:44:12.156Z,12.13
2024-02-23T12:45:16.099Z,10.75
2024-02-23T12:46:18.787Z,15.95
2024-02-23T12:47:21.504Z,12.82
2024-02-23T12:48:24.330Z,11.23
2024-02-23T12:49:27.004Z,10.82
2024-02-23T12:50:32.319Z,10.07
2024-02-23T12:51:35.057Z,13.18
2024-02-23T12:52:37.860Z,17.33
2024-02-23T12:53:42.917Z,17.27
2024-02-23T12:54:45.684Z,16.00
2024-02-23T12:55:49.907Z,17.73
2024-02-23T12:56:52.518Z,19.33
2024-02-23T12:57:55.185Z,18.70
2024-02-23T12:58:58.604Z,15.88
2024-02-23T13:00:01.285Z,14.75
2024-02-23T13:01:04.537Z,13.35
2024-02-23T13:02:10.458Z,8.88
2024-02-23T13:03:13.205Z,7.63
2024-02-23T13:04:15.967Z,13.52
2024-02-23T13:05:19.762Z,18.63
2024-02-23T13:06:22.768Z,10.93
2024-02-23T13:07:27.159Z,15.00
2024-02-23T13:09:33.892Z,19.33
2024-02-23T13:10:36.410Z,22.33
2024-02-23T13:11:40.171Z,18.17
2024-02-23T13:12:42.939Z,17.88
2024-02-23T13:13:45.537Z,14.32
2024-02-23T13:14:48.208Z,68.00
2024-02-23T13:15:53.557Z,42.67
2024-02-23T13:16:56.168Z,10.63
2024-02-23T13:17:58.909Z,32.10
2024-02-23T13:19:03.028Z,7.78
2024-02-23T13:20:11.618Z,31.90
2024-02-23T13:21:16.160Z,21.65
2024-02-23T13:22:20.609Z,11.40
2024-02-23T13:23:23.438Z,13.52
2024-02-23T13:24:25.965Z,18.65
2024-02-23T13:25:29.726Z,17.70
2024-02-23T13:26:32.481Z,17.38
2024-02-23T13:27:35.202Z,22.80
2024-02-23T13:28:38.564Z,18.83
2024-02-23T13:29:41.184Z,14.63
2024-02-23T13:30:43.951Z,17.90
2024-02-23T13:31:46.480Z,19.65
2024-02-23T13:32:49.320Z,12.70
2024-02-23T13:33:52.372Z,15.95
2024-02-23T13:34:55.393Z,17.67
2024-02-23T13:35:59.295Z,7.00
2024-02-23T13:37:01.837Z,10.43
2024-02-23T13:38:04.816Z,11.25
2024-02-23T13:39:07.465Z,12.18
2024-02-23T13:40:10.882Z,8.13
2024-02-23T13:41:13.583Z,16.85
2024-02-23T13:42:16.213Z,15.82
2024-02-23T13:43:18.784Z,7.65
2024-02-23T13:44:21.549Z,5.47
2024-02-23T13:45:25.822Z,12.15
2024-02-23T13:46:31.063Z,8.55
2024-02-23T13:47:33.980Z,7.68
2024-02-23T13:48:38.058Z,10.55
2024-02-23T13:49:40.924Z,15.70
2024-02-23T13:50:43.869Z,14.68